Time;durP1;ratioP1;P1;durP2;ratioP2;P2;SDS_P1;SDS_P2;PMS_P1;PMS_P2;Temp;Humidity;BMP_temperature;BMP_pressure;BME280_temperature;BME280_humidity;BME280_pressure;Samples;Min_cycle;Max_cycle;Signal;HPM_P1;HPM_P2
2022/12/03 00:00:21;;;;;;;18.70;11.48;;;;;;;6.52;55.51;102232.09;5143922;28;20362;-68
2022/12/03 00:02:49;;;;;;;19.40;11.43;;;;;;;6.57;55.26;102230.78;5140733;28;20107;-69
2022/12/03 00:05:17;;;;;;;23.10;12.75;;;;;;;6.55;55.52;102235.47;5141280;28;20054;-68
2022/12/03 00:07:44;;;;;;;19.48;11.65;;;;;;;6.56;55.79;102234.47;5142357;28;20047;-67
2022/12/03 00:10:13;;;;;;;20.75;12.38;;;;;;;6.51;55.50;102224.25;5143670;28;20047;-69
2022/12/03 00:12:41;;;;;;;20.17;11.98;;;;;;;6.52;55.72;102226.78;5140694;28;20047;-69
2022/12/03 00:15:10;;;;;;;19.95;12.00;;;;;;;6.52;55.63;102221.44;5138711;28;20062;-67
2022/12/03 00:17:39;;;;;;;23.13;12.50;;;;;;;6.52;55.31;102218.75;5141287;28;20066;-67
2022/12/03 00:20:08;;;;;;;18.48;10.80;;;;;;;6.52;55.91;102232.09;5139990;28;20051;-67
2022/12/03 00:22:36;;;;;;;20.52;12.48;;;;;;;6.52;55.50;102218.75;5133258;27;20046;-67
2022/12/03 00:25:05;;;;;;;18.98;11.65;;;;;;;6.54;55.57;102221.25;5148477;27;20082;-67
2022/12/03 00:27:32;;;;;;;21.70;12.23;;;;;;;6.52;55.47;102220.59;5143365;27;20329;-67
2022/12/03 00:30:00;;;;;;;19.70;11.88;;;;;;;6.52;55.80;102215.25;5145022;27;20050;-67
2022/12/03 00:32:28;;;;;;;22.55;11.77;;;;;;;6.49;55.51;102212.91;5137721;27;20049;-67
2022/12/03 00:34:57;;;;;;;18.58;11.48;;;;;;;6.49;56.23;102212.91;5139316;27;20052;-67
2022/12/03 00:37:25;;;;;;;19.48;11.98;;;;;;;6.48;55.91;102204.06;5146452;27;20067;-67
2022/12/03 00:39:52;;;;;;;19.52;11.95;;;;;;;6.47;56.32;102197.03;5147487;27;20043;-68
2022/12/03 00:42:20;;;;;;;19.27;11.77;;;;;;;6.47;55.86;102207.72;5146630;27;20051;-67
2022/12/03 00:44:48;;;;;;;19.85;12.35;;;;;;;6.46;55.88;102205.22;5146377;27;20043;-67
2022/12/03 00:47:16;;;;;;;20.15;12.15;;;;;;;6.48;55.81;102195.22;5145413;27;20043;-67
2022/12/03 00:49:43;;;;;;;20.05;11.65;;;;;;;6.47;55.85;102196.22;5144733;27;20039;-67
2022/12/03 00:52:13;;;;;;;20.33;12.43;;;;;;;6.47;55.71;102205.06;5146968;27;20050;-67
2022/12/03 00:54:40;;;;;;;19.90;12.77;;;;;;;6.47;55.88;102210.38;5138513;27;20126;-67
2022/12/03 00:57:08;;;;;;;21.40;12.93;;;;;;;6.47;56.00;102202.38;5140697;27;20118;-67
2022/12/03 00:59:36;;;;;;;19.73;12.00;;;;;;;6.45;55.70;102198.19;5143096;27;20051;-67
2022/12/03 01:02:03;;;;;;;20.10;11.98;;;;;;;6.44;56.13;102207.22;5145371;27;20107;-67
2022/12/03 01:04:32;;;;;;;19.65;12.07;;;;;;;6.41;56.17;102200.34;5145066;27;20047;-67
2022/12/03 01:07:00;;;;;;;20.75;12.52;;;;;;;6.42;56.07;102211.88;5140728;27;20055;-67
2022/12/03 01:09:30;;;;;;;21.77;12.52;;;;;;;6.43;55.93;102208.22;5141702;27;20102;-68
2022/12/03 01:11:57;;;;;;;21.33;14.10;;;;;;;6.43;56.27;102210.88;5137330;27;20457;-67
2022/12/03 01:14:25;;;;;;;19.45;11.55;;;;;;;6.41;56.08;102200.34;5142035;27;20082;-67
2022/12/03 01:16:53;;;;;;;18.83;12.07;;;;;;;6.43;55.85;102203.69;5135095;27;20061;-67
2022/12/03 01:19:21;;;;;;;21.38;11.75;;;;;;;6.41;56.24;102205.69;5145225;27;20047;-67
2022/12/03 01:21:50;;;;;;;20.27;12.15;;;;;;;6.42;56.38;102206.53;5143484;27;20055;-67
2022/12/03 01:24:19;;;;;;;18.23;11.50;;;;;;;6.39;56.22;102206.84;5141927;27;20039;-67
2022/12/03 01:26:48;;;;;;;22.17;12.68;;;;;;;6.27;56.02;102192.97;5136986;27;20111;-68
2022/12/03 01:29:16;;;;;;;19.70;12.65;;;;;;;6.39;55.91;102205.03;5138379;27;20047;-67
2022/12/03 01:34:28;;;;;;;22.40;12.95;;;;;;;6.38;56.43;102211.34;5137491;27;20146;-67
2022/12/03 01:36:56;;;;;;;23.23;13.30;;;;;;;6.36;56.02;102200.00;5137964;27;20156;-67
2022/12/03 01:39:24;;;;;;;23.20;13.70;;;;;;;6.32;56.48;102206.66;5145087;27;20047;-67
2022/12/03 01:41:54;;;;;;;21.20;12.52;;;;;;;6.32;55.90;102204.00;5145007;27;20134;-67
2022/12/03 01:44:23;;;;;;;23.85;12.75;;;;;;;6.35;56.19;102202.84;5143678;27;20059;-67
2022/12/03 01:46:53;;;;;;;20.98;12.55;;;;;;;6.32;56.45;102195.97;5141156;27;20055;-67
2022/12/03 01:49:25;;;;;;;19.25;12.57;;;;;;;6.34;56.70;102207.34;5146170;27;20130;-67
2022/12/03 01:51:55;;;;;;;22.63;12.93;;;;;;;6.35;56.05;102200.16;5136887;27;20055;-67
2022/12/03 01:54:27;;;;;;;20.27;12.57;;;;;;;6.36;56.98;102197.34;5146898;27;20051;-67
2022/12/03 01:56:56;;;;;;;20.13;12.10;;;;;;;6.38;56.58;102199.84;5144773;27;20389;-67
2022/12/03 01:59:32;;;;;;;22.25;12.52;;;;;;;6.37;56.14;102198.16;5142795;27;20054;-67
2022/12/03 02:02:05;;;;;;;18.80;12.38;;;;;;;6.36;56.23;102189.31;5130390;27;20057;-67
2022/12/03 02:04:33;;;;;;;23.05;12.35;;;;;;;6.28;56.67;102178.63;5144567;27;20699;-67
2022/12/03 02:07:24;;;;;;;23.00;13.50;;;;;;;6.37;56.50;102192.84;5137447;27;20136;-67
2022/12/03 02:09:53;;;;;;;22.02;12.73;;;;;;;6.38;56.38;102195.34;5146779;27;20039;-67
2022/12/03 02:12:27;;;;;;;21.45;12.73;;;;;;;6.36;56.58;102189.31;5146291;27;20082;-67
2022/12/03 02:14:55;;;;;;;21.25;12.32;;;;;;;6.38;56.33;102194.50;5145840;27;20058;-67
2022/12/03 02:17:23;;;;;;;22.88;12.80;;;;;;;6.38;56.89;102187.31;5142718;27;20103;-67
2022/12/03 02:19:51;;;;;;;24.13;13.18;;;;;;;6.37;56.88;102191.00;5132371;27;20054;-67
2022/12/03 02:22:28;;;;;;;21.73;12.93;;;;;;;6.37;56.47;102188.31;5140935;27;20043;-68
2022/12/03 02:25:08;;;;;;;23.52;13.40;;;;;;;6.39;56.49;102185.50;5145202;27;20046;-67
2022/12/03 02:27:36;;;;;;;25.42;14.00;;;;;;;6.37;56.32;102187.50;5146661;27;20058;-67
2022/12/03 02:30:05;;;;;;;26.63;15.00;;;;;;;6.33;56.40;102178.97;5129475;27;20123;-68
2022/12/03 02:32:33;;;;;;;20.65;13.65;;;;;;;6.33;56.62;102181.63;5142387;27;20043;-68
2022/12/03 02:35:00;;;;;;;23.33;13.93;;;;;;;6.36;56.55;102186.66;5139154;27;20043;-68
2022/12/03 02:37:34;;;;;;;23.13;13.65;;;;;;;6.36;56.47;102183.97;5129610;27;20434;-68
2022/12/03 02:40:06;;;;;;;23.10;13.00;;;;;;;6.34;56.56;102177.97;5144271;27;20039;-68
2022/12/03 02:42:34;;;;;;;21.65;12.90;;;;;;;6.37;56.71;102180.31;5140554;27;20049;-68
2022/12/03 02:45:06;;;;;;;23.65;13.77;;;;;;;6.33;56.90;102170.97;5143149;27;20047;-68
2022/12/03 02:47:36;;;;;;;22.38;13.57;;;;;;;6.35;56.80;102170.78;5140041;27;20050;-68
2022/12/03 02:50:05;;;;;;;25.13;14.52;;;;;;;6.33;56.66;102178.13;5134729;27;20151;-68
2022/12/03 02:52:33;;;;;;;24.85;13.90;;;;;;;6.34;56.61;102167.28;5137517;27;20126;-68
2022/12/03 02:55:03;;;;;;;21.55;13.60;;;;;;;6.36;56.74;102170.63;5143241;27;20051;-68
2022/12/03 02:57:31;;;;;;;25.55;14.55;;;;;;;6.36;56.52;102183.97;5142885;27;20134;-68
2022/12/03 03:00:00;;;;;;;25.77;14.48;;;;;;;6.33;56.77;102178.13;5134990;27;20054;-68
2022/12/03 03:02:28;;;;;;;23.80;13.68;;;;;;;6.32;56.99;102173.78;5143053;27;20059;-68
2022/12/03 03:04:57;;;;;;;23.20;14.55;;;;;;;6.34;56.63;102169.13;5143583;27;20051;-68
2022/12/03 03:07:24;;;;;;;26.73;14.95;;;;;;;6.30;56.88;102163.28;5144175;27;20050;-68
2022/12/03 03:09:52;;;;;;;23.70;14.70;;;;;;;6.31;57.27;102172.13;5141882;27;20047;-68
2022/12/03 03:12:20;;;;;;;26.23;15.13;;;;;;;6.30;56.94;102165.09;5144584;27;20454;-68
2022/12/03 03:14:48;;;;;;;22.45;13.60;;;;;;;6.31;56.83;102161.44;5131992;27;20051;-68
2022/12/03 03:17:17;;;;;;;24.23;14.88;;;;;;;6.30;56.98;102165.94;5140133;27;20047;-68
2022/12/03 03:19:45;;;;;;;23.13;13.80;;;;;;;6.29;56.64;102166.94;5143832;27;20085;-68
2022/12/03 03:22:14;;;;;;;25.17;15.30;;;;;;;6.30;56.79;102159.75;5131426;27;20047;-68
2022/12/03 03:24:41;;;;;;;22.42;13.43;;;;;;;6.27;57.21;102160.91;5143808;27;20134;-67
2022/12/03 03:27:09;;;;;;;21.92;13.73;;;;;;;6.25;57.12;102146.06;5132656;27;20047;-68
2022/12/03 03:29:37;;;;;;;24.00;14.70;;;;;;;6.23;57.20;102161.41;5140198;27;20051;-68
2022/12/03 03:32:05;;;;;;;24.33;14.18;;;;;;;6.26;56.78;102156.56;5126499;27;20040;-68
2022/12/03 03:34:34;;;;;;;25.48;15.60;;;;;;;6.19;57.08;102147.53;5133183;27;20047;-68
2022/12/03 03:37:02;;;;;;;21.63;13.82;;;;;;;6.23;57.00;102156.06;5143232;27;20073;-68
2022/12/03 03:39:29;;;;;;;24.77;13.90;;;;;;;6.25;57.24;102152.25;5144766;27;20046;-68
2022/12/03 03:41:57;;;;;;;25.40;14.38;;;;;;;6.27;57.45;102149.41;5135157;27;20052;-68
2022/12/03 03:44:25;;;;;;;25.20;14.90;;;;;;;6.25;57.39;102146.91;5138656;27;20040;-68
2022/12/03 03:46:53;;;;;;;25.83;14.85;;;;;;;6.26;57.06;102148.56;5141523;27;20138;-68
2022/12/03 03:49:21;;;;;;;23.88;15.23;;;;;;;6.27;57.20;102147.56;5131628;27;20078;-68
2022/12/03 03:51:50;;;;;;;24.83;15.15;;;;;;;6.26;57.36;102145.06;5142533;27;20047;-68
2022/12/03 03:54:18;;;;;;;24.60;13.93;;;;;;;6.27;57.48;102144.06;5143097;28;20464;-68
2022/12/03 03:56:46;;;;;;;25.73;14.32;;;;;;;6.25;57.19;102146.06;5144060;27;20107;-68
2022/12/03 03:59:14;;;;;;;23.73;14.35;;;;;;;6.25;57.04;102144.22;5134646;28;20057;-68
2022/12/03 04:01:44;;;;;;;25.35;14.15;;;;;;;6.24;57.53;102137.22;5135940;28;20047;-68
2022/12/03 04:04:18;;;;;;;25.52;14.85;;;;;;;6.27;57.27;102138.72;5133286;28;20057;-68
2022/12/03 04:06:46;;;;;;;25.73;14.65;;;;;;;6.25;57.01;102138.88;5141701;28;20382;-67
2022/12/03 04:09:15;;;;;;;28.35;15.90;;;;;;;6.25;57.30;102138.88;5144414;28;20134;-67
2022/12/03 04:14:28;;;;;;;23.70;14.02;;;;;;;6.26;57.45;102145.06;5131840;27;20075;-68
2022/12/03 04:16:56;;;;;;;25.85;15.27;;;;;;;6.23;57.00;102143.56;5139994;28;20047;-68
2022/12/03 04:19:23;;;;;;;26.25;14.73;;;;;;;6.25;57.38;102138.06;5128439;28;20047;-68
2022/12/03 04:24:38;;;;;;;23.73;13.55;;;;;;;6.25;57.30;102135.38;5141117;28;20050;-68
2022/12/03 04:29:51;;;;;;;27.95;15.00;;;;;;;6.24;57.24;102137.22;5141538;28;20112;-68
2022/12/03 04:37:50;;;;;;;25.90;15.35;;;;;;;6.23;57.51;102143.56;5142729;28;20499;-68
2022/12/03 04:43:03;;;;;;;22.85;14.20;;;;;;;6.25;57.32;102138.06;5129737;28;20059;-68
2022/12/03 04:45:31;;;;;;;27.27;15.15;;;;;;;6.24;57.12;102131.88;5141736;28;20066;-68
2022/12/03 04:47:59;;;;;;;24.75;14.73;;;;;;;6.25;57.47;102138.06;5142750;27;20146;-68
2022/12/03 04:50:26;;;;;;;23.70;14.50;;;;;;;6.27;57.34;102139.56;5136445;28;20051;-68
2022/12/03 04:52:54;;;;;;;24.13;14.93;;;;;;;6.25;57.61;102133.56;5143121;28;20134;-67
2022/12/03 04:55:23;;;;;;;29.75;16.95;;;;;;;6.22;57.48;102131.22;5131532;28;20051;-68
2022/12/03 04:57:51;;;;;;;26.27;15.63;;;;;;;6.25;57.62;102132.72;5143451;28;20415;-68
2022/12/03 05:00:19;;;;;;;26.15;15.60;;;;;;;6.24;57.30;102126.53;5141458;28;20097;-67
2022/12/03 05:02:46;;;;;;;26.35;15.57;;;;;;;6.25;57.84;102132.72;5142735;28;20039;-68
2022/12/03 05:05:14;;;;;;;23.95;14.27;;;;;;;6.25;57.50;102130.88;5139116;28;20112;-66
2022/12/03 05:07:42;;;;;;;22.08;14.70;;;;;;;6.25;57.54;102128.22;5140542;27;20066;-65
2022/12/03 05:10:11;;;;;;;25.40;15.93;;;;;;;6.25;57.36;102120.19;5148091;27;20080;-64
2022/12/03 05:12:40;;;;;;;26.45;15.30;;;;;;;6.22;57.56;102122.34;5142444;27;20098;-68
2022/12/03 05:15:08;;;;;;;26.17;16.67;;;;;;;6.22;57.54;102125.88;5148452;27;20501;-64
2022/12/03 05:17:36;;;;;;;26.88;15.95;;;;;;;6.22;57.67;102120.53;5146745;27;20043;-67
2022/12/03 05:22:49;;;;;;;29.50;16.10;;;;;;;6.20;57.51;102117.19;5144313;27;20070;-68
2022/12/03 05:25:17;;;;;;;28.65;16.52;;;;;;;6.19;57.46;102115.50;5145793;27;20055;-68
2022/12/03 05:27:46;;;;;;;27.98;16.45;;;;;;;6.17;57.46;102112.16;5146357;27;20181;-68
2022/12/03 05:30:14;;;;;;;26.85;15.60;;;;;;;6.17;57.70;102118.34;5147637;27;20111;-68
2022/12/03 05:32:42;;;;;;;29.10;16.40;;;;;;;6.17;57.75;102109.50;5143676;27;20133;-68
2022/12/03 05:35:10;;;;;;;25.98;16.38;;;;;;;6.16;57.57;102110.50;5144903;27;20600;-68
2022/12/03 05:37:38;;;;;;;25.50;15.57;;;;;;;6.15;58.19;102108.81;5136479;27;20525;-68
2022/12/03 05:40:07;;;;;;;29.10;17.00;;;;;;;6.17;58.01;102112.16;5147074;27;20088;-68
2022/12/03 05:45:22;;;;;;;27.38;16.73;;;;;;;6.16;57.92;102108.66;5142689;27;20055;-67
2022/12/03 05:47:49;;;;;;;25.73;15.52;;;;;;;6.13;57.71;102111.66;5143445;27;20062;-68
2022/12/03 05:50:18;;;;;;;29.85;16.83;;;;;;;6.13;57.76;102111.66;5145959;27;20079;-68
2022/12/03 05:52:45;;;;;;;27.08;15.63;;;;;;;6.13;58.04;102098.31;5137257;27;20124;-68
2022/12/03 05:55:13;;;;;;;30.60;16.88;;;;;;;6.14;57.81;102107.16;5143535;27;20114;-68
2022/12/03 05:57:41;;;;;;;27.08;16.65;;;;;;;6.11;57.87;102097.63;5145666;27;20043;-68
2022/12/03 06:00:15;;;;;;;28.02;16.25;;;;;;;6.14;57.82;102093.81;5141393;27;20059;-68
2022/12/03 06:02:44;;;;;;;26.77;16.00;;;;;;;6.13;57.85;102097.47;4777680;27;10000152;-68
2022/12/03 06:05:14;;;;;;;24.77;15.40;;;;;;;6.13;57.92;102094.81;5141184;27;20118;-68
2022/12/03 06:07:42;;;;;;;28.30;17.10;;;;;;;6.11;57.84;102094.13;5142450;27;20057;-68
2022/12/03 06:10:12;;;;;;;26.00;16.63;;;;;;;6.14;58.04;102096.47;5129836;27;20481;-68
2022/12/03 06:12:40;;;;;;;26.48;17.00;;;;;;;6.14;57.77;102093.81;5137661;27;20804;-68
2022/12/03 06:15:09;;;;;;;30.40;17.15;;;;;;;6.14;58.06;102093.81;5131558;27;20054;-68
2022/12/03 06:17:37;;;;;;;28.13;16.17;;;;;;;6.12;57.98;102096.63;5141183;27;20051;-66
2022/12/03 06:20:08;;;;;;;29.25;16.17;;;;;;;6.13;58.26;102103.66;5140175;27;20124;-67
2022/12/03 06:22:35;;;;;;;31.08;17.15;;;;;;;6.10;57.99;102100.47;5138120;27;20046;-68
2022/12/03 06:25:03;;;;;;;29.40;16.48;;;;;;;6.10;57.96;102095.13;5140782;27;20051;-68
2022/12/03 06:27:34;;;;;;;31.45;16.80;;;;;;;6.08;58.11;102097.97;5134332;27;20047;-67
2022/12/03 06:30:02;;;;;;;27.50;16.00;;;;;;;6.11;57.93;102097.63;5128484;27;20080;-68
2022/12/03 06:32:29;;;;;;;29.58;17.08;;;;;;;6.11;58.00;102102.97;5139484;27;20138;-67
2022/12/03 06:34:57;;;;;;;27.00;15.73;;;;;;;6.03;57.90;102080.75;5136772;27;20051;-66
2022/12/03 06:37:26;;;;;;;26.20;15.50;;;;;;;6.06;57.83;102086.63;5139166;27;20058;-67
2022/12/03 06:39:54;;;;;;;30.40;16.98;;;;;;;6.09;58.11;102094.28;5140180;27;20058;-68
2022/12/03 06:42:21;;;;;;;27.50;16.67;;;;;;;6.07;57.97;102090.94;5141206;27;20467;-67
2022/12/03 06:44:49;;;;;;;28.52;15.32;;;;;;;6.07;57.63;102098.13;5137296;27;20050;-68
2022/12/03 06:47:17;;;;;;;29.92;16.25;;;;;;;6.04;57.96;102096.63;5139978;27;20161;-67
2022/12/03 06:49:45;;;;;;;30.13;16.92;;;;;;;6.04;58.42;102098.44;5140916;27;20571;-67
2022/12/03 06:52:13;;;;;;;29.95;16.58;;;;;;;6.03;58.07;102092.28;5140016;27;20047;-68
2022/12/03 06:54:42;;;;;;;27.65;15.48;;;;;;;6.06;58.33;102097.28;5134411;27;20127;-67
2022/12/03 06:57:09;;;;;;;27.63;16.05;;;;;;;6.06;58.12;102089.28;5135937;27;20058;-68
2022/12/03 06:59:37;;;;;;;30.88;17.05;;;;;;;6.05;58.05;102089.44;5135970;27;20058;-68
2022/12/03 07:02:05;;;;;;;26.63;16.27;;;;;;;6.07;58.29;102085.63;5130650;27;20043;-67
2022/12/03 07:04:33;;;;;;;27.23;15.68;;;;;;;6.10;58.25;102095.13;5138801;27;20108;-67
2022/12/03 07:07:01;;;;;;;28.73;17.23;;;;;;;6.10;58.22;102093.28;5129014;27;20051;-68
2022/12/03 07:09:28;;;;;;;25.73;14.95;;;;;;;6.10;57.96;102089.78;5130640;27;20119;-68
2022/12/03 07:11:57;;;;;;;27.33;15.68;;;;;;;6.12;58.18;102095.81;5150488;27;20053;-68
2022/12/03 07:14:25;;;;;;;27.35;15.43;;;;;;;6.11;58.61;102094.97;5138318;27;20062;-68
2022/12/03 07:16:53;;;;;;;26.13;15.20;;;;;;;6.11;58.36;102097.63;5129033;27;20552;-68
2022/12/03 07:19:21;;;;;;;29.63;16.92;;;;;;;6.10;58.22;102101.31;5138474;27;20134;-68
2022/12/03 07:21:58;;;;;;;26.50;15.27;;;;;;;6.10;58.15;102097.81;5133600;27;20519;-68
2022/12/03 07:24:27;;;;;;;26.00;14.88;;;;;;;6.10;58.20;102095.13;5141172;27;20072;-68
2022/12/03 07:26:54;;;;;;;28.88;15.85;;;;;;;6.09;58.52;102107.63;5123467;27;20067;-68
2022/12/03 07:29:23;;;;;;;27.42;15.65;;;;;;;6.09;58.10;102096.97;5137877;27;20151;-67
2022/12/03 07:31:51;;;;;;;29.00;16.48;;;;;;;6.09;58.00;102096.97;5139847;27;20158;-68
2022/12/03 07:34:19;;;;;;;28.33;15.02;;;;;;;6.09;58.59;102096.13;5140261;27;20043;-68
2022/12/03 07:36:47;;;;;;;30.17;17.02;;;;;;;6.09;58.30;102090.78;5132632;27;20843;-67
2022/12/03 07:39:15;;;;;;;29.20;15.68;;;;;;;6.10;58.09;102087.97;5132714;27;20057;-68
2022/12/03 07:41:42;;;;;;;31.00;15.85;;;;;;;6.08;58.16;102084.63;5131140;27;20057;-68
2022/12/03 07:44:11;;;;;;;28.70;16.17;;;;;;;6.07;58.02;102090.94;5128179;27;20050;-68
2022/12/03 07:46:42;;;;;;;27.13;15.32;;;;;;;6.11;58.32;102081.63;5125861;27;20076;-67
2022/12/03 07:49:12;;;;;;;30.67;17.05;;;;;;;6.23;57.69;102087.50;5138084;27;20051;-68
2022/12/03 07:51:39;;;;;;;26.25;14.68;;;;;;;6.36;57.57;102087.03;5138544;27;20090;-68
2022/12/03 07:54:07;;;;;;;30.10;16.20;;;;;;;6.48;57.03;102085.72;5135833;27;20523;-71
2022/12/03 07:56:35;;;;;;;27.85;15.93;;;;;;;6.61;56.46;102087.91;5125989;28;20165;-70
2022/12/03 07:59:03;;;;;;;27.38;15.45;;;;;;;6.74;56.01;102089.09;5137658;27;20055;-67
2022/12/03 08:01:30;;;;;;;27.73;16.13;;;;;;;6.79;55.84;102086.75;5132877;28;20078;-71
2022/12/03 08:03:59;;;;;;;27.58;15.15;;;;;;;6.79;55.56;102096.59;5137091;28;20051;-66
2022/12/03 08:06:27;;;;;;;27.52;15.35;;;;;;;6.73;55.90;102094.59;5136599;27;20039;-68
2022/12/03 08:08:55;;;;;;;23.13;14.20;;;;;;;6.76;55.84;102094.25;5133656;28;20058;-66
2022/12/03 08:11:22;;;;;;;26.98;15.13;;;;;;;6.88;55.43;102100.94;5137165;28;20524;-66
2022/12/03 08:13:50;;;;;;;29.00;16.67;;;;;;;7.03;55.16;102098.41;5135320;28;20142;-67
2022/12/03 08:16:20;;;;;;;27.73;15.82;;;;;;;7.18;54.85;102094.88;5130823;28;20082;-71
2022/12/03 08:18:49;;;;;;;30.98;14.95;;;;;;;7.29;54.69;102096.38;5137637;28;20047;-67
2022/12/03 08:21:20;;;;;;;26.45;15.93;;;;;;;7.43;54.17;102100.19;5135424;28;20053;-67
2022/12/03 08:23:48;;;;;;;26.02;14.27;;;;;;;7.56;53.89;102095.16;5140239;28;20145;-67
2022/12/03 08:26:23;;;;;;;28.90;15.45;;;;;;;7.69;53.63;102100.78;5135916;28;20039;-67
2022/12/03 08:28:52;;;;;;;25.00;14.65;;;;;;;7.79;52.99;102100.59;5137962;28;20142;-68
2022/12/03 08:31:22;;;;;;;23.67;13.27;;;;;;;7.90;53.06;102099.38;5137971;28;20047;-68
2022/12/03 08:34:17;;;;;;;29.00;14.60;;;;;;;7.90;53.29;102102.06;5128142;28;20048;-67
2022/12/03 08:36:47;;;;;;;25.50;15.13;;;;;;;7.82;53.18;102092.22;5134914;28;20065;-67
2022/12/03 08:39:32;;;;;;;25.80;13.95;;;;;;;7.64;53.51;102087.09;5134774;28;20048;-67
2022/12/03 08:44:59;;;;;;;26.40;15.13;;;;;;;7.26;54.19;102099.38;5136476;27;20114;-72
2022/12/03 08:47:29;;;;;;;26.63;15.35;;;;;;;7.12;54.81;102098.22;5134794;27;20047;-68
2022/12/03 08:50:18;;;;;;;28.90;14.77;;;;;;;7.02;55.25;102102.91;5138937;27;20134;-72
2022/12/03 08:52:47;;;;;;;29.52;15.75;;;;;;;6.95;54.96;102109.09;5143734;27;20142;-71
2022/12/03 08:55:38;;;;;;;29.23;15.02;;;;;;;6.84;55.31;102108.47;5138512;27;20062;-71
2022/12/03 08:58:18;;;;;;;28.05;14.90;;;;;;;6.80;55.61;102103.63;5133890;27;20062;-67
2022/12/03 09:00:45;;;;;;;27.85;14.45;;;;;;;6.73;55.57;102113.28;5141213;27;20053;-69
2022/12/03 09:03:18;;;;;;;27.25;14.30;;;;;;;6.75;55.90;102112.13;5141774;27;20047;-68
2022/12/03 09:05:46;;;;;;;23.88;14.25;;;;;;;6.89;54.97;102115.13;5139933;27;20042;-68
2022/12/03 09:08:15;;;;;;;24.38;13.93;;;;;;;7.02;54.86;102113.59;5135452;27;20567;-68
2022/12/03 09:10:42;;;;;;;25.17;13.38;;;;;;;7.16;54.09;102107.59;5142498;27;20043;-68
2022/12/03 09:13:10;;;;;;;26.42;13.95;;;;;;;7.34;53.67;102110.06;5139883;27;20103;-68
2022/12/03 09:15:38;;;;;;;30.40;14.85;;;;;;;7.45;53.53;102107.03;5139163;27;20044;-68
2022/12/03 09:18:06;;;;;;;28.80;15.32;;;;;;;7.46;53.71;102114.06;5140040;27;20366;-68
2022/12/03 09:20:33;;;;;;;24.10;12.73;;;;;;;7.42;53.62;102111.91;5142107;27;20130;-67
2022/12/03 09:23:01;;;;;;;23.55;13.68;;;;;;;7.36;53.87;102107.22;5147477;27;20146;-66
2022/12/03 09:25:30;;;;;;;25.08;12.68;;;;;;;7.24;54.38;102112.09;5145496;27;20047;-67
2022/12/03 09:27:58;;;;;;;28.98;13.90;;;;;;;7.14;54.79;102111.44;5146436;27;20054;-65
2022/12/03 09:30:26;;;;;;;26.30;13.85;;;;;;;7.00;54.14;102106.75;5135930;27;20049;-66
2022/12/03 09:32:53;;;;;;;23.60;13.60;;;;;;;6.91;54.24;102105.97;5137762;27;20134;-67
2022/12/03 09:35:21;;;;;;;26.00;14.15;;;;;;;6.82;54.52;102110.47;5145565;27;20046;-67
2022/12/03 09:37:49;;;;;;;25.55;14.30;;;;;;;6.80;54.64;102114.31;5140002;27;20175;-66
2022/12/03 09:40:17;;;;;;;23.00;12.77;;;;;;;6.75;55.52;102111.28;5144176;27;20047;-66
2022/12/03 09:42:47;;;;;;;27.50;14.70;;;;;;;6.73;55.42;102105.28;5147509;27;20043;-65
2022/12/03 09:45:15;;;;;;;29.15;14.48;;;;;;;6.67;55.65;102104.09;5147523;27;20054;-66
2022/12/03 09:47:45;;;;;;;23.30;13.50;;;;;;;6.63;55.52;102096.59;5145542;27;20072;-66
2022/12/03 09:50:15;;;;;;;26.48;14.18;;;;;;;6.59;55.70;102087.22;5130556;27;20381;-66
2022/12/03 09:52:45;;;;;;;22.80;14.18;;;;;;;6.55;55.93;102083.22;5146239;27;20535;-66
2022/12/03 09:55:16;;;;;;;27.42;14.63;;;;;;;6.53;56.07;102088.72;5129818;27;20086;-66
2022/12/03 09:57:46;;;;;;;28.52;13.98;;;;;;;6.51;55.88;102080.88;5126296;28;20054;-66
2022/12/03 10:00:17;;;;;;;26.58;14.05;;;;;;;6.51;56.16;102088.88;5143515;27;20396;-66
2022/12/03 10:02:46;;;;;;;23.70;13.82;;;;;;;6.43;55.70;102078.19;5135261;27;20077;-66
2022/12/03 10:05:14;;;;;;;26.77;15.10;;;;;;;6.48;56.09;102089.22;5126792;27;20062;-67
2022/12/03 10:07:42;;;;;;;27.70;13.93;;;;;;;6.47;55.67;102092.06;5145969;27;20043;-67
2022/12/03 10:10:16;;;;;;;25.05;14.07;;;;;;;6.45;56.07;102084.22;5146888;27;20110;-66
2022/12/03 10:12:44;;;;;;;23.85;13.98;;;;;;;6.40;55.29;102078.53;5126436;27;20047;-66
2022/12/03 10:15:16;;;;;;;24.77;13.50;;;;;;;6.38;55.84;102075.19;5142029;27;20046;-66
2022/12/03 10:17:45;;;;;;;25.35;14.15;;;;;;;6.47;55.65;102073.38;5145157;27;20055;-67
2022/12/03 10:20:15;;;;;;;24.60;14.10;;;;;;;6.61;54.94;102064.69;5146319;27;20047;-65
2022/12/03 10:22:44;;;;;;;26.48;13.35;;;;;;;6.75;54.67;102061.38;5145554;27;20138;-67
2022/12/03 10:25:14;;;;;;;29.25;14.00;;;;;;;6.92;54.04;102064.88;5146733;27;20115;-66
2022/12/03 10:27:42;;;;;;;26.02;13.93;;;;;;;7.04;53.76;102058.16;5138169;27;20040;-67
2022/12/03 10:30:22;;;;;;;25.73;14.98;;;;;;;7.16;53.81;102053.28;5145699;27;20135;-67
2022/12/03 10:32:51;;;;;;;23.05;13.10;;;;;;;7.03;53.87;102051.13;5146461;27;20043;-65
2022/12/03 10:35:21;;;;;;;24.25;13.27;;;;;;;6.65;54.07;102046.50;5144130;27;20046;-65
2022/12/03 10:37:57;;;;;;;26.42;14.77;;;;;;;6.61;54.13;102037.97;5136139;27;20051;-67
2022/12/03 10:40:27;;;;;;;26.70;15.18;;;;;;;6.59;54.00;102045.34;5125884;28;20053;-68
2022/12/03 10:43:14;;;;;;;23.08;13.75;;;;;;;6.58;54.56;102034.81;5125689;28;20380;-66
2022/12/03 10:45:43;;;;;;;25.08;13.25;;;;;;;6.57;54.71;102030.47;5142643;27;20140;-66
2022/12/03 10:48:13;;;;;;;25.70;13.60;;;;;;;6.56;54.46;102018.13;5144554;27;20069;-63
2022/12/03 10:50:48;;;;;;;24.23;13.73;;;;;;;6.60;54.65;102022.13;5134514;27;20063;-66
2022/12/03 10:53:16;;;;;;;27.98;13.88;;;;;;;6.56;54.99;102021.63;5125853;28;20054;-67
2022/12/03 10:55:46;;;;;;;29.02;14.73;;;;;;;6.42;55.47;102012.44;5132524;27;20066;-66
2022/12/03 10:58:21;;;;;;;26.17;14.35;;;;;;;6.39;55.06;102019.94;5145360;27;20047;-66
2022/12/03 11:00:52;;;;;;;23.55;13.55;;;;;;;6.41;55.01;102015.28;5141107;27;20054;-65
2022/12/03 11:03:22;;;;;;;25.23;14.20;;;;;;;6.36;55.12;102017.59;5146289;27;20436;-65
2022/12/03 11:05:51;;;;;;;26.77;13.82;;;;;;;6.37;55.56;102016.59;5143488;27;20058;-65
2022/12/03 11:08:20;;;;;;;25.60;14.23;;;;;;;6.36;54.95;102015.78;5139954;27;20035;-65
2022/12/03 11:10:57;;;;;;;27.05;14.82;;;;;;;6.36;55.23;102009.59;5137937;27;20054;-65
2022/12/03 11:13:44;;;;;;;23.10;13.20;;;;;;;6.34;55.43;102004.41;5140009;27;20051;-67
2022/12/03 11:16:14;;;;;;;24.17;13.50;;;;;;;6.36;55.85;102006.94;5135677;27;20051;-67
2022/12/03 11:19:00;;;;;;;22.38;13.82;;;;;;;6.36;55.45;102004.25;5142842;27;20043;-66
2022/12/03 11:21:28;;;;;;;25.75;13.65;;;;;;;6.35;55.35;102006.09;5141770;27;20118;-66
2022/12/03 11:24:17;;;;;;;23.80;13.80;;;;;;;6.31;55.39;101994.06;5139719;27;20471;-66
2022/12/03 11:27:24;;;;;;;22.80;13.27;;;;;;;6.32;55.71;101987.75;5142428;27;20088;-66
2022/12/03 11:29:55;;;;;;;23.08;13.20;;;;;;;6.34;55.34;101996.41;5140679;27;20126;-65
2022/12/03 11:33:05;;;;;;;25.85;14.15;;;;;;;6.31;55.32;101996.75;5136118;27;20086;-66
2022/12/03 11:36:14;;;;;;;23.75;13.25;;;;;;;6.45;54.83;101993.41;5115736;27;20373;-66
2022/12/03 11:38:56;;;;;;;23.42;13.80;;;;;;;6.61;54.17;101983.72;5126806;27;20074;-67
2022/12/03 11:41:26;;;;;;;23.20;13.38;;;;;;;6.76;53.90;101984.72;5124540;28;20051;-65
2022/12/03 11:44:28;;;;;;;26.25;14.93;;;;;;;6.94;53.82;101974.63;5126577;27;20067;-68
2022/12/03 11:46:58;;;;;;;22.95;12.68;;;;;;;7.15;53.61;101971.41;5131709;27;20155;-62
2022/12/03 11:49:32;;;;;;;26.15;14.15;;;;;;;7.34;52.71;101972.84;5138288;27;20043;-65
2022/12/03 11:52:11;;;;;;;24.65;13.50;;;;;;;7.46;52.32;101958.09;5138135;27;20134;-66
2022/12/03 11:54:39;;;;;;;24.40;14.20;;;;;;;7.42;52.25;101972.81;5143679;27;20057;-66
2022/12/03 11:57:26;;;;;;;23.67;13.40;;;;;;;7.32;52.79;101972.19;5141581;28;20055;-66